createdAt,value
2023-01-29T00:00:10.742Z,9.90
2023-01-29T00:02:42.703Z,9.63
2023-01-29T00:05:27.117Z,10.55
2023-01-29T00:08:00.134Z,10.25
2023-01-29T00:10:32.234Z,10.27
2023-01-29T00:13:04.243Z,10.50
2023-01-29T00:15:36.197Z,10.70
2023-01-29T00:18:08.414Z,12.40
2023-01-29T00:20:43.977Z,11.02
2023-01-29T00:23:15.995Z,11.82
2023-01-29T00:25:48.271Z,11.63
2023-01-29T00:28:20.388Z,11.90
2023-01-29T00:30:52.375Z,11.20
2023-01-29T00:33:24.558Z,11.75
2023-01-29T00:35:56.684Z,12.30
2023-01-29T00:38:28.560Z,12.23
2023-01-29T00:41:34.283Z,12.85
2023-01-29T00:44:25.706Z,12.80
2023-01-29T00:46:57.834Z,11.05
2023-01-29T00:49:30.752Z,11.43
2023-01-29T00:52:25.797Z,11.18
2023-01-29T00:54:59.824Z,9.55
2023-01-29T00:57:33.630Z,9.50
2023-01-29T01:00:07.890Z,8.88
2023-01-29T01:02:58.276Z,9.57
2023-01-29T01:05:30.496Z,9.48
2023-01-29T01:08:02.473Z,9.27
2023-01-29T01:10:34.421Z,9.50
2023-01-29T01:13:07.595Z,10.35
2023-01-29T01:15:40.970Z,9.95
2023-01-29T01:18:15.131Z,9.77
2023-01-29T01:20:51.879Z,9.40
2023-01-29T01:23:23.788Z,8.50
2023-01-29T01:25:55.777Z,8.32
2023-01-29T01:28:28.365Z,8.48
2023-01-29T01:31:09.095Z,7.22
2023-01-29T01:36:14.356Z,6.63
2023-01-29T01:38:46.707Z,6.80
2023-01-29T01:41:21.944Z,7.68
2023-01-29T01:44:02.239Z,7.10
2023-01-29T01:46:38.181Z,7.20
2023-01-29T01:49:18.755Z,7.35
2023-01-29T01:51:52.990Z,6.40
2023-01-29T01:54:29.031Z,6.03
2023-01-29T01:57:09.651Z,6.03
2023-01-29T01:59:47.022Z,6.28
2023-01-29T02:02:37.483Z,5.95
2023-01-29T02:05:31.455Z,6.00
2023-01-29T02:08:22.211Z,6.28
2023-01-29T02:13:27.219Z,5.72
2023-01-29T02:15:59.223Z,6.30
2023-01-29T02:18:38.232Z,6.47
2023-01-29T02:21:35.813Z,6.50
2023-01-29T02:24:23.025Z,6.57
2023-01-29T02:27:09.490Z,7.43
2023-01-29T02:30:00.856Z,8.88
2023-01-29T02:33:22.522Z,9.18
2023-01-29T02:35:59.225Z,7.43
2023-01-29T02:38:53.849Z,7.35
2023-01-29T02:41:48.742Z,7.18
2023-01-29T02:44:56.330Z,6.50
2023-01-29T02:47:37.585Z,6.60
2023-01-29T02:50:17.181Z,7.35
2023-01-29T02:53:10.508Z,6.73
2023-01-29T02:55:53.792Z,7.60
2023-01-29T02:58:35.373Z,7.10
2023-01-29T03:01:13.176Z,7.70
2023-01-29T03:03:51.736Z,7.13
2023-01-29T03:06:38.843Z,8.13
2023-01-29T03:09:22.831Z,8.60
2023-01-29T03:11:59.138Z,8.48
2023-01-29T03:14:54.088Z,9.00
2023-01-29T03:17:33.310Z,8.77
2023-01-29T03:20:14.006Z,8.15
2023-01-29T03:22:51.937Z,7.82
2023-01-29T03:25:46.318Z,8.35
2023-01-29T03:28:38.032Z,8.38
2023-01-29T03:31:31.296Z,8.20
2023-01-29T03:34:06.059Z,8.43
2023-01-29T03:36:46.186Z,8.30
2023-01-29T03:39:18.409Z,6.57
2023-01-29T03:42:03.023Z,5.93
2023-01-29T03:44:48.970Z,6.90
2023-01-29T03:47:45.794Z,6.60
2023-01-29T03:50:35.630Z,6.93
2023-01-29T03:53:16.712Z,7.80
2023-01-29T03:56:33.291Z,7.25
2023-01-29T03:59:35.855Z,6.90
2023-01-29T04:02:16.372Z,6.82
2023-01-29T04:04:52.320Z,7.13
2023-01-29T04:07:25.790Z,7.00
2023-01-29T04:10:07.140Z,7.68
2023-01-29T04:12:55.383Z,8.07
2023-01-29T04:15:31.638Z,7.40
2023-01-29T04:18:03.765Z,8.68
2023-01-29T04:20:36.362Z,8.57
2023-01-29T04:23:24.515Z,7.70
2023-01-29T04:26:14.434Z,8.40
2023-01-29T04:29:04.447Z,8.43
2023-01-29T04:31:57.755Z,8.55
2023-01-29T04:34:53.723Z,8.13
2023-01-29T04:37:40.568Z,9.00
2023-01-29T04:40:40.708Z,8.48
2023-01-29T04:43:27.236Z,8.75
2023-01-29T04:46:22.250Z,7.80
2023-01-29T04:49:13.290Z,7.68
2023-01-29T04:51:55.635Z,8.95
2023-01-29T04:54:40.134Z,8.30
2023-01-29T04:57:18.431Z,7.90
2023-01-29T05:00:17.178Z,7.72
2023-01-29T05:02:49.772Z,8.55
2023-01-29T05:05:22.553Z,8.15
2023-01-29T05:07:57.359Z,7.80
2023-01-29T05:10:29.635Z,8.45
2023-01-29T05:13:05.622Z,8.75
2023-01-29T05:15:46.876Z,8.10
2023-01-29T05:18:22.194Z,7.38
2023-01-29T05:20:57.143Z,7.47
2023-01-29T05:23:29.152Z,8.00
2023-01-29T05:26:01.435Z,7.40
2023-01-29T05:28:33.383Z,8.57
2023-01-29T05:31:05.400Z,8.10
2023-01-29T05:33:37.334Z,9.10
2023-01-29T05:36:09.759Z,8.75
2023-01-29T05:38:41.692Z,8.52
2023-01-29T05:41:13.673Z,9.05
2023-01-29T05:43:45.612Z,9.80
2023-01-29T05:46:17.593Z,8.98
2023-01-29T05:48:49.620Z,10.48
2023-01-29T05:51:21.625Z,10.57
2023-01-29T05:53:54.346Z,10.05
2023-01-29T05:56:26.278Z,9.80
2023-01-29T05:58:58.250Z,9.98
2023-01-29T06:01:30.202Z,9.80
2023-01-29T06:04:02.301Z,10.70
2023-01-29T06:06:34.321Z,10.57
2023-01-29T06:09:06.275Z,9.90
2023-01-29T06:11:38.779Z,11.32
2023-01-29T06:14:10.766Z,9.52
2023-01-29T06:16:42.747Z,11.02
2023-01-29T06:19:14.740Z,11.32
2023-01-29T06:21:46.693Z,12.93
2023-01-29T06:24:18.670Z,12.50
2023-01-29T06:26:50.712Z,13.40
2023-01-29T06:29:22.704Z,12.43
2023-01-29T06:31:54.793Z,14.80
2023-01-29T06:34:26.846Z,18.92
2023-01-29T06:36:58.784Z,17.95
2023-01-29T06:39:30.816Z,14.63
2023-01-29T06:42:02.848Z,12.95
2023-01-29T06:44:34.812Z,15.00
2023-01-29T06:47:06.778Z,17.15
2023-01-29T06:49:38.686Z,13.07
2023-01-29T06:52:12.904Z,11.48
2023-01-29T06:54:45.353Z,10.80
2023-01-29T06:57:17.348Z,11.40
2023-01-29T06:59:49.542Z,13.57
2023-01-29T07:02:21.561Z,11.35
2023-01-29T07:04:53.511Z,11.43
2023-01-29T07:07:25.514Z,11.70
2023-01-29T07:09:57.459Z,13.48
2023-01-29T07:12:29.521Z,13.02
2023-01-29T07:15:01.593Z,13.07
2023-01-29T07:17:33.588Z,11.27
2023-01-29T07:20:06.517Z,10.23
2023-01-29T07:22:38.515Z,11.00
2023-01-29T07:25:10.555Z,12.40
2023-01-29T07:27:42.479Z,12.50
2023-01-29T07:30:15.063Z,11.65
2023-01-29T07:32:47.108Z,12.30
2023-01-29T07:35:19.106Z,11.90
2023-01-29T07:37:51.742Z,10.85
2023-01-29T07:40:24.135Z,11.73
2023-01-29T07:43:04.983Z,9.95
2023-01-29T07:45:39.228Z,11.68
2023-01-29T07:48:13.653Z,10.40
2023-01-29T07:50:46.330Z,10.30
2023-01-29T07:53:18.335Z,10.23
2023-01-29T07:55:50.619Z,9.90
2023-01-29T07:58:22.674Z,8.98
2023-01-29T08:00:54.680Z,10.23
2023-01-29T08:03:31.704Z,10.15
2023-01-29T08:06:05.006Z,10.02
2023-01-29T08:08:37.004Z,11.35
2023-01-29T08:11:09.002Z,10.57
2023-01-29T08:13:40.982Z,11.05
2023-01-29T08:16:12.979Z,10.48
2023-01-29T08:18:48.110Z,10.90
2023-01-29T08:21:20.088Z,10.55
2023-01-29T08:23:52.020Z,9.77
2023-01-29T08:26:24.059Z,11.98
2023-01-29T08:28:55.992Z,16.25
2023-01-29T08:31:28.040Z,13.63
2023-01-29T08:34:00.162Z,15.45
2023-01-29T08:36:32.143Z,12.75
2023-01-29T08:39:04.259Z,17.52
2023-01-29T08:41:36.217Z,15.45
2023-01-29T08:44:08.210Z,25.83
2023-01-29T08:46:41.180Z,12.48
2023-01-29T08:49:13.167Z,12.40
2023-01-29T08:51:45.107Z,15.60
2023-01-29T08:54:17.283Z,15.20
2023-01-29T08:56:49.467Z,15.35
2023-01-29T08:59:23.182Z,22.45
2023-01-29T09:01:55.105Z,11.88
2023-01-29T09:04:27.104Z,12.40
2023-01-29T09:06:59.110Z,12.52
2023-01-29T09:09:31.036Z,11.88
2023-01-29T09:12:03.003Z,14.95
2023-01-29T09:14:34.913Z,11.93
2023-01-29T09:17:06.890Z,17.55
2023-01-29T09:19:38.821Z,13.98
2023-01-29T09:22:11.896Z,15.70
2023-01-29T09:24:44.001Z,14.90
2023-01-29T09:27:15.963Z,15.82
2023-01-29T09:29:47.960Z,21.25
2023-01-29T09:32:49.836Z,29.92
2023-01-29T09:35:11.839Z,23.33
2023-01-29T09:37:43.771Z,16.90
2023-01-29T09:40:39.476Z,29.58
2023-01-29T09:43:19.211Z,24.20
2023-01-29T09:46:00.774Z,21.40
2023-01-29T09:48:36.764Z,25.90
2023-01-29T09:51:22.302Z,16.85
2023-01-29T09:54:19.131Z,31.48
2023-01-29T09:56:56.006Z,24.35
2023-01-29T09:59:31.467Z,27.10
2023-01-29T10:02:20.110Z,15.60
2023-01-29T10:05:10.610Z,29.45
2023-01-29T10:08:21.108Z,16.25
2023-01-29T10:11:20.237Z,16.67
2023-01-29T10:14:31.494Z,19.73
2023-01-29T10:17:30.444Z,14.95
2023-01-29T10:20:14.445Z,12.40
2023-01-29T10:23:12.656Z,13.10
2023-01-29T10:25:46.162Z,16.10
2023-01-29T10:28:28.610Z,13.55
2023-01-29T10:31:09.279Z,12.13
2023-01-29T10:33:49.344Z,13.38
2023-01-29T10:36:57.608Z,12.38
2023-01-29T10:39:31.318Z,13.60
2023-01-29T10:42:28.268Z,15.40
2023-01-29T10:45:17.386Z,15.80
2023-01-29T10:48:06.463Z,12.43
2023-01-29T10:50:44.551Z,14.63
2023-01-29T10:53:53.866Z,14.65
2023-01-29T10:56:50.944Z,14.75
2023-01-29T10:59:42.961Z,14.57
2023-01-29T11:02:18.892Z,13.10
2023-01-29T11:04:50.851Z,11.90
2023-01-29T11:07:23.848Z,13.38
2023-01-29T11:10:03.341Z,13.23
2023-01-29T11:12:38.562Z,12.85
2023-01-29T11:15:32.499Z,13.40
2023-01-29T11:18:15.957Z,12.95
2023-01-29T11:21:02.292Z,14.88
2023-01-29T11:23:34.500Z,15.02
2023-01-29T11:26:09.660Z,14.32
2023-01-29T11:28:47.062Z,13.25
2023-01-29T11:31:30.382Z,14.63
2023-01-29T11:34:06.743Z,13.60
2023-01-29T11:36:39.618Z,16.73
2023-01-29T11:39:22.717Z,15.38
2023-01-29T11:42:01.813Z,15.95
2023-01-29T11:44:38.973Z,13.13
2023-01-29T11:47:17.671Z,13.23
2023-01-29T11:49:54.530Z,12.52
2023-01-29T11:52:35.617Z,11.40
2023-01-29T11:55:17.661Z,11.77
2023-01-29T11:58:30.538Z,13.68
2023-01-29T12:01:03.297Z,17.95
2023-01-29T12:03:36.633Z,14.20
2023-01-29T12:06:20.236Z,13.70
2023-01-29T12:09:02.231Z,11.98
2023-01-29T12:11:35.846Z,13.13
2023-01-29T12:14:24.385Z,14.02
2023-01-29T12:17:17.700Z,15.98
2023-01-29T12:19:56.817Z,20.90
2023-01-29T12:22:43.859Z,11.77
2023-01-29T12:25:22.867Z,13.48
2023-01-29T12:28:13.366Z,12.75
2023-01-29T12:31:08.997Z,13.38
2023-01-29T12:33:54.593Z,12.88
2023-01-29T12:36:29.255Z,12.02
2023-01-29T12:39:01.254Z,13.43
2023-01-29T12:41:36.807Z,12.45
2023-01-29T12:44:33.752Z,14.80
2023-01-29T12:47:08.477Z,15.82
2023-01-29T12:49:44.074Z,13.98
2023-01-29T12:52:21.416Z,12.77
2023-01-29T12:55:28.181Z,15.32
2023-01-29T12:58:25.696Z,17.40
2023-01-29T13:01:05.679Z,14.80
2023-01-29T13:03:40.463Z,15.60
2023-01-29T13:06:16.189Z,13.25
2023-01-29T13:08:56.071Z,13.73
2023-01-29T13:11:42.277Z,15.17
2023-01-29T13:14:41.435Z,14.85
2023-01-29T13:17:38.091Z,20.30
2023-01-29T13:20:29.141Z,21.88
2023-01-29T13:23:19.540Z,17.05
2023-01-29T13:25:55.088Z,20.60
2023-01-29T13:28:28.277Z,23.67
2023-01-29T13:31:23.707Z,24.92
2023-01-29T13:34:18.322Z,20.17
2023-01-29T13:37:03.258Z,16.42
2023-01-29T13:39:44.979Z,18.27
2023-01-29T13:42:23.756Z,21.13
2023-01-29T13:45:03.230Z,21.15
2023-01-29T13:47:38.962Z,28.80
2023-01-29T13:50:18.900Z,18.35
2023-01-29T13:52:58.409Z,20.63
2023-01-29T13:55:33.301Z,18.35
2023-01-29T13:58:38.433Z,19.85
2023-01-29T14:01:10.464Z,20.55
2023-01-29T14:04:04.223Z,19.40
2023-01-29T14:06:40.699Z,19.02
2023-01-29T14:09:44.817Z,17.50
2023-01-29T14:12:22.814Z,18.42
2023-01-29T14:14:57.774Z,22.98
2023-01-29T14:17:30.378Z,22.88
2023-01-29T14:20:16.793Z,22.02
2023-01-29T14:22:58.061Z,23.17
2023-01-29T14:25:37.552Z,24.05
2023-01-29T14:28:20.331Z,28.02
2023-01-29T14:30:53.096Z,27.25
2023-01-29T14:33:44.759Z,27.88
2023-01-29T14:36:17.077Z,22.75
2023-01-29T14:38:52.543Z,27.73
2023-01-29T14:41:25.606Z,25.58
2023-01-29T14:44:35.226Z,27.58
2023-01-29T14:47:18.723Z,29.00
2023-01-29T14:49:56.524Z,40.45
2023-01-29T14:52:43.527Z,31.90
2023-01-29T14:55:36.141Z,25.92
2023-01-29T14:58:15.030Z,30.08
2023-01-29T15:00:53.305Z,29.70
2023-01-29T15:03:40.279Z,26.20
2023-01-29T15:06:19.533Z,26.73
2023-01-29T15:09:01.271Z,25.63
2023-01-29T15:11:41.106Z,28.33
2023-01-29T15:14:17.092Z,28.48
2023-01-29T15:17:01.433Z,31.25
2023-01-29T15:19:45.000Z,30.52
2023-01-29T15:22:22.341Z,38.22
2023-01-29T15:25:13.371Z,31.48
2023-01-29T15:27:46.347Z,34.30
2023-01-29T15:30:27.550Z,31.90
2023-01-29T15:33:00.970Z,35.28
2023-01-29T15:35:39.359Z,33.53
2023-01-29T15:38:18.937Z,35.45
2023-01-29T15:40:57.006Z,35.83
2023-01-29T15:43:37.112Z,35.10
2023-01-29T15:46:25.619Z,37.15
2023-01-29T15:49:01.773Z,43.08
2023-01-29T15:51:34.297Z,43.05
2023-01-29T15:54:15.497Z,47.28
2023-01-29T15:56:51.570Z,45.92
2023-01-29T15:59:27.487Z,37.22
2023-01-29T16:01:59.520Z,36.65
2023-01-29T16:04:32.121Z,38.88
2023-01-29T16:07:04.719Z,36.03
2023-01-29T16:09:37.088Z,35.53
2023-01-29T16:12:13.008Z,37.28
2023-01-29T16:14:45.481Z,39.60
2023-01-29T16:17:41.090Z,36.45
2023-01-29T16:20:44.042Z,36.78
2023-01-29T16:23:31.275Z,33.72
2023-01-29T16:26:07.708Z,37.67
2023-01-29T16:28:45.091Z,41.78
2023-01-29T16:31:32.327Z,38.95
2023-01-29T16:34:15.275Z,39.55
2023-01-29T16:36:48.591Z,35.05
2023-01-29T16:39:28.110Z,35.08
2023-01-29T16:42:20.313Z,35.05
2023-01-29T16:45:03.663Z,35.13
2023-01-29T16:47:41.748Z,33.28
2023-01-29T16:50:38.290Z,31.80
2023-01-29T16:53:24.924Z,30.10
2023-01-29T16:56:04.601Z,39.92
2023-01-29T16:58:37.237Z,38.55
2023-01-29T17:01:11.756Z,32.72
2023-01-29T17:03:44.072Z,36.95
2023-01-29T17:06:23.913Z,35.70
2023-01-29T17:08:56.180Z,40.67
2023-01-29T17:11:38.913Z,32.15
2023-01-29T17:14:19.458Z,32.58
2023-01-29T17:16:55.416Z,31.48
2023-01-29T17:19:28.115Z,29.13
2023-01-29T17:22:00.496Z,28.00
2023-01-29T17:24:32.420Z,30.13
2023-01-29T17:27:04.445Z,28.77
2023-01-29T17:29:39.383Z,30.60
2023-01-29T17:32:11.892Z,30.30
2023-01-29T17:34:44.118Z,32.92
2023-01-29T17:37:16.818Z,31.85
2023-01-29T17:39:50.999Z,33.83
2023-01-29T17:42:23.057Z,31.55
2023-01-29T17:44:55.087Z,32.83
2023-01-29T17:47:27.383Z,29.70
2023-01-29T17:50:00.199Z,32.78
2023-01-29T17:52:33.225Z,38.13
2023-01-29T17:55:05.666Z,35.40
2023-01-29T17:57:37.655Z,34.88
2023-01-29T18:00:21.965Z,37.50
2023-01-29T18:02:54.731Z,36.08
2023-01-29T18:05:26.642Z,33.90
2023-01-29T18:07:58.660Z,33.80
2023-01-29T18:10:30.604Z,36.67
2023-01-29T18:13:02.536Z,33.75
2023-01-29T18:15:34.499Z,36.55
2023-01-29T18:18:06.919Z,33.47
2023-01-29T18:20:40.211Z,31.05
2023-01-29T18:23:12.908Z,31.08
2023-01-29T18:25:45.495Z,30.95
2023-01-29T18:28:20.959Z,31.20
2023-01-29T18:30:53.222Z,31.33
2023-01-29T18:33:26.237Z,30.63
2023-01-29T18:35:58.757Z,31.45
2023-01-29T18:38:33.421Z,31.25
2023-01-29T18:41:11.109Z,29.85
2023-01-29T18:43:43.558Z,31.33
2023-01-29T18:46:15.641Z,30.50
2023-01-29T18:48:47.598Z,32.90
2023-01-29T18:51:19.519Z,29.35
2023-01-29T18:53:52.465Z,32.28
2023-01-29T18:56:24.393Z,28.90
2023-01-29T18:58:56.579Z,30.25
2023-01-29T19:01:28.629Z,31.15
2023-01-29T19:04:02.106Z,30.80
2023-01-29T19:06:37.090Z,30.25
2023-01-29T19:09:09.725Z,28.85
2023-01-29T19:11:41.696Z,28.77
2023-01-29T19:14:13.680Z,28.02
2023-01-29T19:16:45.620Z,27.00
2023-01-29T19:19:18.047Z,30.35
2023-01-29T19:21:53.836Z,28.00
2023-01-29T19:24:26.135Z,30.05
2023-01-29T19:26:58.137Z,30.45
2023-01-29T19:29:30.098Z,32.63
2023-01-29T19:32:02.423Z,30.17
2023-01-29T19:34:34.642Z,30.98
2023-01-29T19:37:06.645Z,33.80
2023-01-29T19:39:38.606Z,32.63
2023-01-29T19:42:10.496Z,34.90
2023-01-29T19:44:42.560Z,36.22
2023-01-29T19:47:14.668Z,37.13
2023-01-29T19:49:47.196Z,32.22
2023-01-29T19:52:50.715Z,33.03
2023-01-29T19:55:23.556Z,31.52
2023-01-29T19:57:57.434Z,33.55
2023-01-29T20:00:29.441Z,30.15
2023-01-29T20:03:01.455Z,32.08
2023-01-29T20:05:36.150Z,30.40
2023-01-29T20:08:08.114Z,31.05
2023-01-29T20:10:40.094Z,34.13
2023-01-29T20:13:12.810Z,32.53
2023-01-29T20:15:49.593Z,31.15
2023-01-29T20:18:21.736Z,32.83
2023-01-29T20:20:53.685Z,31.65
2023-01-29T20:23:37.022Z,29.42
2023-01-29T20:26:14.688Z,29.27
2023-01-29T20:28:48.217Z,27.77
2023-01-29T20:31:20.232Z,27.42
2023-01-29T20:33:52.387Z,32.03
2023-01-29T20:36:24.334Z,31.88
2023-01-29T20:38:56.426Z,29.35
2023-01-29T20:41:28.402Z,30.23
2023-01-29T20:44:00.456Z,30.63
2023-01-29T20:46:32.796Z,28.33
2023-01-29T20:49:07.216Z,28.92
2023-01-29T20:51:39.221Z,27.83
2023-01-29T20:54:13.029Z,28.25
2023-01-29T20:56:46.851Z,28.73
2023-01-29T20:59:20.323Z,27.65
2023-01-29T21:01:52.302Z,27.35
2023-01-29T21:04:24.361Z,25.15
2023-01-29T21:06:56.349Z,26.52
2023-01-29T21:09:28.302Z,26.40
2023-01-29T21:12:00.593Z,29.70
2023-01-29T21:14:33.066Z,30.92
2023-01-29T21:17:05.309Z,28.17
2023-01-29T21:19:37.417Z,28.45
2023-01-29T21:22:09.264Z,26.42
2023-01-29T21:24:41.293Z,27.35
2023-01-29T21:27:13.254Z,26.00
2023-01-29T21:29:45.203Z,26.27
2023-01-29T21:32:18.552Z,27.15
2023-01-29T21:34:52.492Z,29.33
2023-01-29T21:37:24.656Z,28.42
2023-01-29T21:39:56.572Z,30.23
2023-01-29T21:42:47.216Z,30.40
2023-01-29T21:45:20.402Z,29.23
2023-01-29T21:47:52.402Z,26.83
2023-01-29T21:50:24.407Z,27.92
2023-01-29T21:52:56.379Z,27.88
2023-01-29T21:55:28.452Z,27.15
2023-01-29T21:58:00.861Z,28.67
2023-01-29T22:00:33.079Z,27.83
2023-01-29T22:03:05.189Z,28.13
2023-01-29T22:05:37.271Z,31.55
2023-01-29T22:08:09.969Z,34.53
2023-01-29T22:10:42.133Z,31.40
2023-01-29T22:13:14.232Z,30.73
2023-01-29T22:15:46.212Z,30.90
2023-01-29T22:18:18.245Z,31.63
2023-01-29T22:20:54.487Z,29.98
2023-01-29T22:23:26.420Z,30.70
2023-01-29T22:26:05.875Z,31.15
2023-01-29T22:28:37.772Z,32.88
2023-01-29T22:31:09.973Z,33.53
2023-01-29T22:33:41.924Z,35.58
2023-01-29T22:36:13.856Z,35.75
2023-01-29T22:38:46.934Z,32.92
2023-01-29T22:41:18.780Z,32.17
2023-01-29T22:43:50.738Z,30.50
2023-01-29T22:46:22.684Z,32.22
2023-01-29T22:48:55.131Z,31.13
2023-01-29T22:51:27.115Z,28.25
2023-01-29T22:53:59.102Z,31.48
2023-01-29T22:56:31.506Z,30.38
2023-01-29T22:59:03.597Z,29.63
2023-01-29T23:01:35.644Z,30.23
2023-01-29T23:04:07.612Z,31.77
2023-01-29T23:06:39.561Z,32.60
2023-01-29T23:09:11.529Z,30.20
2023-01-29T23:11:43.475Z,30.02
2023-01-29T23:14:15.414Z,29.95
2023-01-29T23:16:47.521Z,30.13
2023-01-29T23:19:19.557Z,33.38
2023-01-29T23:21:51.446Z,30.95
2023-01-29T23:24:23.479Z,29.35
2023-01-29T23:27:14.075Z,29.35
2023-01-29T23:29:47.785Z,29.35
2023-01-29T23:32:21.218Z,29.23
2023-01-29T23:34:53.342Z,28.77
2023-01-29T23:37:25.754Z,28.85
2023-01-29T23:39:57.726Z,28.27
2023-01-29T23:42:29.689Z,28.48
2023-01-29T23:45:01.688Z,27.52
2023-01-29T23:47:33.559Z,26.35
2023-01-29T23:50:05.944Z,27.25
2023-01-29T23:52:39.120Z,26.42
2023-01-29T23:55:11.096Z,26.20
2023-01-29T23:57:43.008Z,25.98
